LFGAEDNY

Guest
Details From LFGA - Houssen
To EDNY - Friedrichshafen
Flight Number -
Tags generated
Created
Modified
Stats Distance 90 nm / 168 km
Max Altitude 2,400 ft / 732 m
Waypoints 3
Social Downloads 0
Likes 0
Share VATSIM

Download

Looking for another format? Having issues loading an existing format? Contact us
Advertisement - Login to hide

Notes

Basic altitude profile: - Ascent Rate: 1500ft/min - Ascent Speed: 140kts - Cruise Altitude: 5000ft - Cruise Speed: 210kts - Descent Rate: 1500ft/min - Descent Speed: 140kts Options: - Use NATs: no - Use PACOTS: no - Use low airways: yes - Use high airways: no

Route

LFGA AKABI EDNY

ID Type Via Altitude Latitude Longitude Leg Dist Tot Dist Heading (true) Name
O LFGA APT - 0 ft / 0 m 48.10970˚ 7.35897˚ - 0 nm - Houssen
AKABI FIX - 2,400 ft / 732 m 47.71694˚ 9.23333˚ 79 nm 79 nm 107° / 108° -
O EDNY APT - 0 ft / 0 m 47.67089˚ 9.50818˚ 11 nm 90 nm 104° / 104° Friedrichshafen

Altitude Profile

Advertisement - Login to hide

LFGA

Details ICAO LFGA (CMR)
Name Houssen
Region France
Timezone Europe/Paris (UTC+1.0)
Stats Elevation 627 ft / 191 m (AMSL)
Location 48.109701° 7.358965°
Runways 1
Magnetic Variation 2.038° E

METAR

LFGA 181300Z AUTO VRB01KT 9999 SCT009 BKN033 OVC047 03/01 Q1022

Decode

TAF

Not found

Departure Runways

ID Width Length Bearing (true) Bearing (mag) Surface Threshold Offset Overrun Length
01 98 ft / 30 m 5,298 ft / 1,615 m 10.98° 8.94° Asphalt 689 ft / 210 m 0 ft / 0 m
19 98 ft / 30 m 5,298 ft / 1,615 m 190.98° 188.94° Asphalt 0 ft / 0 m 0 ft / 0 m

EDNY

Details ICAO EDNY (FDH)
Name Friedrichshafen
Region Germany - Civil
Timezone Europe/Berlin (UTC+1.0)
Stats Elevation 1,367 ft / 417 m (AMSL)
Location 47.670891° 9.508175°
Runways 2
Magnetic Variation 2.587° E

METAR

EDNY 181250Z 15004KT 110V170 9999 SCT004 BKN010 OVC014 00/M01 Q1022

Decode

TAF

TAF EDNY 181100Z 1812/1912 VRB03KT 9999 BKN015 TEMPO 1812/1814 1200 -SN BKN006 TEMPO 1821/1908 4000 BR BKN008

Decode

Destination Runways

ID Width Length Bearing (true) Bearing (mag) Surface Threshold Offset Overrun Length
06 148 ft / 45 m 7,738 ft / 2,359 m 60.02° 57.43° Asphalt 869 ft / 265 m 0 ft / 0 m
06L 92 ft / 28 m 3,167 ft / 965 m 60.04° 57.45° Grass 0 ft / 0 m 0 ft / 0 m
24 148 ft / 45 m 7,738 ft / 2,359 m 240.04° 237.45° Asphalt 676 ft / 206 m 89 ft / 27 m
24R 92 ft / 28 m 3,167 ft / 965 m 240.04° 237.45° Grass 0 ft / 0 m 0 ft / 0 m

Approach Navaids

Runway Type Ident Frequency Range Bearing (true) Bearing (mag) Slope Elevation
06 Localiser IFHE 111.90 MHz 18 nm / 33 km 60.06° 57.47° - 1,366 ft / 416 m (AMSL)
06 Glidescope IFHE 111.90 MHz 10 nm / 19 km 60.03° 57.44° 3.10° 1,367 ft / 417 m (AMSL)
24 Localiser IFHW 111.90 MHz 18 nm / 33 km 240.03° 237.45° - 1,333 ft / 406 m (AMSL)
24 Glidescope IFHW 111.90 MHz 10 nm / 19 km 240.03° 237.44° 3.00° 1,367 ft / 417 m (AMSL)

Popular Alternatives